createdAt,value
2017-09-11T00:01:15.481Z,99467.97
2017-09-11T00:03:43.769Z,99470.84
2017-09-11T00:06:12.057Z,99462.92
2017-09-11T00:08:40.364Z,99464.84
2017-09-11T00:11:08.649Z,99463.06
2017-09-11T00:13:37.721Z,99461.30
2017-09-11T00:16:06.029Z,99455.97
2017-09-11T00:18:35.092Z,99454.35
2017-09-11T00:21:03.381Z,99454.20
2017-09-11T00:23:31.686Z,99449.30
2017-09-11T00:26:00.738Z,99444.80
2017-09-11T00:28:29.047Z,99442.07
2017-09-11T00:30:58.107Z,99441.23
2017-09-11T00:33:27.189Z,99437.58
2017-09-11T00:35:55.472Z,99438.14
2017-09-11T00:38:23.761Z,99430.63
2017-09-11T00:40:52.068Z,99431.33
2017-09-11T00:43:21.124Z,99428.72
2017-09-11T00:45:49.416Z,99429.02
2017-09-11T00:48:17.705Z,99416.20
2017-09-11T00:50:46.774Z,99432.80
2017-09-11T00:53:15.061Z,99425.19
2017-09-11T00:55:43.384Z,99423.31
2017-09-11T00:58:11.681Z,99412.27
2017-09-11T01:00:39.977Z,99414.75
2017-09-11T01:03:08.259Z,99418.84
2017-09-11T01:05:36.579Z,99414.35
2017-09-11T01:08:05.632Z,99419.84
2017-09-11T01:10:33.928Z,99415.77
2017-09-11T01:13:02.221Z,99413.75
2017-09-11T01:15:31.293Z,99414.85
2017-09-11T01:17:59.602Z,99411.88
2017-09-11T01:20:27.894Z,99406.84
2017-09-11T01:22:56.214Z,99404.00
2017-09-11T01:25:25.317Z,99391.61
2017-09-11T01:27:53.676Z,99383.59
2017-09-11T01:30:21.960Z,99386.05
2017-09-11T01:32:50.272Z,99377.63
2017-09-11T01:35:19.432Z,99375.30
2017-09-11T01:37:47.752Z,99368.76
2017-09-11T01:40:16.812Z,99365.77
2017-09-11T01:42:45.152Z,99360.48
2017-09-11T01:45:13.469Z,99323.52
2017-09-11T01:47:41.781Z,99354.48
2017-09-11T01:50:10.086Z,99349.70
2017-09-11T01:52:38.374Z,99347.94
2017-09-11T01:55:06.676Z,99337.74
2017-09-11T01:57:35.011Z,99337.05
2017-09-11T02:00:03.300Z,99345.50
2017-09-11T02:02:31.580Z,99344.25
2017-09-11T02:04:59.877Z,99336.90
2017-09-11T02:07:28.173Z,99332.16
2017-09-11T02:09:56.493Z,99329.02
2017-09-11T02:12:24.782Z,99321.91
2017-09-11T02:14:53.064Z,99320.75
2017-09-11T02:17:21.364Z,99326.17
2017-09-11T02:19:49.653Z,99323.95
2017-09-11T02:22:17.951Z,99322.97
2017-09-11T02:24:47.012Z,99335.33
2017-09-11T02:27:15.313Z,99324.10
2017-09-11T02:29:44.371Z,99316.82
2017-09-11T02:32:12.667Z,99314.23
2017-09-11T02:34:40.971Z,99314.23
2017-09-11T02:37:10.036Z,99313.77
2017-09-11T02:39:38.315Z,99307.34
2017-09-11T02:42:06.628Z,99305.41
2017-09-11T02:44:35.684Z,99303.23
2017-09-11T02:47:03.990Z,99296.83
2017-09-11T02:49:33.059Z,99295.05
2017-09-11T02:52:01.354Z,99296.81
2017-09-11T02:54:30.421Z,99295.67
2017-09-11T02:56:58.713Z,99297.70
2017-09-11T02:59:27.018Z,99298.09
2017-09-11T03:01:56.085Z,99294.39
2017-09-11T03:04:24.380Z,99285.65
2017-09-11T03:06:53.433Z,99284.96
2017-09-11T03:09:21.801Z,99276.23
2017-09-11T03:11:50.087Z,99276.34
2017-09-11T03:14:18.417Z,99287.83
2017-09-11T03:16:47.480Z,99280.08
2017-09-11T03:19:15.781Z,99275.44
2017-09-11T03:21:44.854Z,99275.45
2017-09-11T03:24:13.181Z,99263.98
2017-09-11T03:26:41.481Z,99265.50
2017-09-11T03:29:09.785Z,99264.13
2017-09-11T03:31:38.103Z,99268.63
2017-09-11T03:34:06.393Z,99258.70
2017-09-11T03:36:34.716Z,99255.99
2017-09-11T03:39:03.010Z,99256.73
2017-09-11T03:41:32.066Z,99250.74
2017-09-11T03:44:00.356Z,99243.28
2017-09-11T03:46:28.654Z,99238.14
2017-09-11T03:48:57.716Z,99243.21
2017-09-11T03:51:26.004Z,99237.50
2017-09-11T03:53:54.309Z,99238.97
2017-09-11T03:56:23.373Z,99242.55
2017-09-11T03:58:51.696Z,99243.20
2017-09-11T04:01:20.768Z,99229.66
2017-09-11T04:03:49.824Z,99233.53
2017-09-11T04:06:18.140Z,99235.38
2017-09-11T04:08:46.425Z,99229.89
2017-09-11T04:11:15.497Z,99220.59
2017-09-11T04:13:43.810Z,99219.25
2017-09-11T04:16:12.873Z,99214.10
2017-09-11T04:18:41.167Z,99211.16
2017-09-11T04:21:10.299Z,99210.92
2017-09-11T04:23:38.580Z,99204.28
2017-09-11T04:26:06.875Z,99205.89
2017-09-11T04:28:35.193Z,99205.81
2017-09-11T04:31:04.293Z,99204.31
2017-09-11T04:33:33.348Z,99200.78
2017-09-11T04:38:39.910Z,99179.98
2017-09-11T04:41:08.235Z,99190.08
2017-09-11T04:43:36.562Z,99181.83
2017-09-11T04:46:04.857Z,99175.29
2017-09-11T04:48:33.166Z,99172.95
2017-09-11T04:51:01.466Z,99172.11
2017-09-11T04:53:30.537Z,99170.08
2017-09-11T04:55:58.833Z,99167.78
2017-09-11T04:58:27.914Z,99162.80
2017-09-11T05:00:56.239Z,99171.09
2017-09-11T05:03:24.567Z,99173.52
2017-09-11T05:05:52.862Z,99169.09
2017-09-11T05:08:21.932Z,99167.23
2017-09-11T05:10:50.230Z,99159.57
2017-09-11T05:13:19.325Z,99150.70
2017-09-11T05:15:48.390Z,99144.06
2017-09-11T05:18:16.693Z,99149.92
2017-09-11T05:20:45.793Z,99143.16
2017-09-11T05:23:14.093Z,99148.41
2017-09-11T05:25:42.395Z,99144.78
2017-09-11T05:28:10.686Z,99151.62
2017-09-11T05:30:39.030Z,99159.17
2017-09-11T05:33:07.311Z,99143.02
2017-09-11T05:35:35.621Z,99151.72
2017-09-11T05:38:04.023Z,99139.58
2017-09-11T05:40:32.373Z,99140.28
2017-09-11T05:43:00.671Z,99140.41
2017-09-11T05:45:29.765Z,99140.82
2017-09-11T05:47:58.083Z,99139.00
2017-09-11T05:50:26.382Z,99135.19
2017-09-11T05:52:54.696Z,99135.89
2017-09-11T05:55:22.999Z,99131.83
2017-09-11T05:57:52.077Z,99129.61
2017-09-11T06:00:21.143Z,99129.63
2017-09-11T06:02:49.454Z,99120.95
2017-09-11T06:05:18.529Z,99120.08
2017-09-11T06:07:46.836Z,99122.24
2017-09-11T06:10:15.923Z,99114.47
2017-09-11T06:12:45.086Z,99104.91
2017-09-11T06:15:13.477Z,99126.20
2017-09-11T06:17:41.774Z,99113.52
2017-09-11T06:20:10.842Z,99115.19
2017-09-11T06:22:39.228Z,99121.75
2017-09-11T06:25:07.608Z,99127.94
2017-09-11T06:27:35.897Z,99118.75
2017-09-11T06:30:04.201Z,99119.27
2017-09-11T06:32:32.502Z,99111.16
2017-09-11T06:35:00.809Z,99112.84
2017-09-11T06:37:29.111Z,99108.50
2017-09-11T06:39:58.207Z,99119.59
2017-09-11T06:42:27.276Z,99126.01
2017-09-11T06:44:55.569Z,99120.81
2017-09-11T06:47:23.873Z,99135.80
2017-09-11T06:49:52.182Z,99122.88
2017-09-11T06:52:20.500Z,99125.61
2017-09-11T06:54:48.819Z,99114.34
2017-09-11T06:57:17.138Z,99109.47
2017-09-11T06:59:45.443Z,99118.09
2017-09-11T07:02:13.804Z,99125.27
2017-09-11T07:04:42.876Z,99132.33
2017-09-11T07:07:11.197Z,99128.67
2017-09-11T07:09:40.258Z,99127.02
2017-09-11T07:12:26.252Z,99134.00
2017-09-11T07:14:54.550Z,99135.81
2017-09-11T07:17:23.615Z,99141.24
2017-09-11T07:19:51.917Z,99145.52
2017-09-11T07:22:20.210Z,99143.66
2017-09-11T07:24:49.287Z,99138.72
2017-09-11T07:27:17.585Z,99143.03
2017-09-11T07:29:46.657Z,99151.64
2017-09-11T07:32:14.954Z,99152.11
2017-09-11T07:34:44.025Z,99149.50
2017-09-11T07:37:12.323Z,99153.94
2017-09-11T07:39:41.419Z,99151.22
2017-09-11T07:42:10.498Z,99139.11
2017-09-11T07:44:38.799Z,99147.03
2017-09-11T07:47:07.879Z,99153.16
2017-09-11T07:49:36.174Z,99152.81
2017-09-11T07:52:05.256Z,99158.05
2017-09-11T07:54:34.325Z,99162.34
2017-09-11T07:57:02.631Z,99157.09
2017-09-11T07:59:31.703Z,99160.59
2017-09-11T08:02:00.010Z,99155.55
2017-09-11T08:04:29.078Z,99162.67
2017-09-11T08:06:57.397Z,99156.30
2017-09-11T08:09:25.693Z,99147.25
2017-09-11T08:11:54.023Z,99141.98
2017-09-11T08:14:22.330Z,99148.79
2017-09-11T08:16:50.627Z,99145.84
2017-09-11T08:19:18.934Z,99139.34
2017-09-11T08:21:47.230Z,99141.83
2017-09-11T08:24:15.538Z,99135.55
2017-09-11T08:26:43.838Z,99144.23
2017-09-11T08:29:12.138Z,99155.52
2017-09-11T08:31:40.447Z,99148.16
2017-09-11T08:34:09.530Z,99153.38
2017-09-11T08:36:37.823Z,99150.66
2017-09-11T08:39:06.913Z,99145.31
2017-09-11T08:41:35.977Z,99148.85
2017-09-11T08:44:04.269Z,99157.37
2017-09-11T08:46:32.581Z,99153.66
2017-09-11T08:49:00.878Z,99145.02
2017-09-11T08:51:29.187Z,99143.81
2017-09-11T08:53:57.479Z,99136.11
2017-09-11T08:56:25.786Z,99122.78
2017-09-11T08:58:54.846Z,99126.63
2017-09-11T09:01:23.159Z,99132.59
2017-09-11T09:03:51.456Z,99131.95
2017-09-11T09:06:19.759Z,99130.25
2017-09-11T09:08:48.058Z,99128.07
2017-09-11T09:11:16.398Z,99127.50
2017-09-11T09:13:44.689Z,99132.19
2017-09-11T09:16:12.994Z,99126.68
2017-09-11T09:18:41.297Z,99127.52
2017-09-11T09:21:09.596Z,99134.34
2017-09-11T09:23:37.901Z,99131.65
2017-09-11T09:26:06.194Z,99135.65
2017-09-11T09:28:35.274Z,99132.33
2017-09-11T09:31:03.571Z,99135.30
2017-09-11T09:33:31.874Z,99132.11
2017-09-11T09:36:00.935Z,99127.18
2017-09-11T09:38:29.271Z,99124.95
2017-09-11T09:40:57.576Z,99131.95
2017-09-11T09:43:25.870Z,99131.47
2017-09-11T09:45:54.180Z,99125.48
2017-09-11T09:48:22.488Z,99135.59
2017-09-11T09:50:50.881Z,99142.91
2017-09-11T09:53:19.961Z,99141.94
2017-09-11T09:55:48.262Z,99141.19
2017-09-11T09:58:16.554Z,99141.64
2017-09-11T10:00:44.867Z,99146.03
2017-09-11T10:03:13.166Z,99137.81
2017-09-11T10:05:41.478Z,99145.95
2017-09-11T10:08:09.778Z,99146.90
2017-09-11T10:10:38.847Z,99144.91
2017-09-11T10:13:07.154Z,99139.94
2017-09-11T10:15:36.226Z,99145.02
2017-09-11T10:18:04.530Z,99141.20
2017-09-11T10:20:33.615Z,99141.89
2017-09-11T10:23:02.714Z,99138.96
2017-09-11T10:25:31.773Z,99135.30
2017-09-11T10:28:00.065Z,99129.66
2017-09-11T10:30:28.371Z,99126.44
2017-09-11T10:32:57.431Z,99135.44
2017-09-11T10:35:25.748Z,99134.28
2017-09-11T10:37:54.070Z,99145.55
2017-09-11T10:40:22.382Z,99143.89
2017-09-11T10:42:51.441Z,99138.34
2017-09-11T10:45:19.754Z,99140.89
2017-09-11T10:47:48.822Z,99138.84
2017-09-11T10:50:17.134Z,99142.53
2017-09-11T10:52:46.202Z,99148.55
2017-09-11T10:55:14.506Z,99145.01
2017-09-11T10:57:43.663Z,99154.45
2017-09-11T11:00:11.966Z,99151.12
2017-09-11T11:02:41.045Z,99154.21
2017-09-11T11:05:09.338Z,99160.11
2017-09-11T11:07:38.405Z,99158.64
2017-09-11T11:10:06.698Z,99157.94
2017-09-11T11:12:35.030Z,99161.20
2017-09-11T11:15:03.330Z,99163.19
2017-09-11T11:17:31.618Z,99168.61
2017-09-11T11:19:59.923Z,99168.52
2017-09-11T11:22:28.982Z,99173.16
2017-09-11T11:24:57.288Z,99168.34
2017-09-11T11:27:26.354Z,99164.04
2017-09-11T11:29:54.650Z,99164.48
2017-09-11T11:32:22.945Z,99169.66
2017-09-11T11:34:52.021Z,99169.37
2017-09-11T11:37:20.319Z,99182.22
2017-09-11T11:40:21.942Z,99180.95
2017-09-11T11:42:50.252Z,99179.20
2017-09-11T11:45:19.346Z,99177.52
2017-09-11T11:47:47.641Z,99181.12
2017-09-11T11:50:16.710Z,99186.45
2017-09-11T11:52:45.027Z,99195.27
2017-09-11T11:55:14.090Z,99192.86
2017-09-11T11:57:43.161Z,99188.20
2017-09-11T12:00:11.464Z,99201.80
2017-09-11T12:02:40.535Z,99200.83
2017-09-11T12:05:08.834Z,99193.58
2017-09-11T12:07:37.926Z,99200.69
2017-09-11T12:10:06.554Z,99207.48
2017-09-11T12:12:34.850Z,99197.23
2017-09-11T12:15:03.161Z,99193.20
2017-09-11T12:17:31.457Z,99196.05
2017-09-11T12:20:00.539Z,99197.88
2017-09-11T12:22:29.601Z,99188.42
2017-09-11T12:24:57.903Z,99190.77
2017-09-11T12:27:26.214Z,99191.48
2017-09-11T12:29:54.521Z,99192.36
2017-09-11T12:32:22.827Z,99194.59
2017-09-11T12:34:51.162Z,99193.53
2017-09-11T12:37:20.046Z,99192.91
2017-09-11T12:39:48.355Z,99186.69
2017-09-11T12:42:16.686Z,99181.06
2017-09-11T12:44:45.073Z,99182.03
2017-09-11T12:47:13.374Z,99183.79
2017-09-11T12:49:41.670Z,99191.49
2017-09-11T12:52:10.000Z,99191.09
2017-09-11T12:54:38.396Z,99180.67
2017-09-11T12:57:06.725Z,99185.12
2017-09-11T12:59:35.034Z,99191.34
2017-09-11T13:02:03.343Z,99188.79
2017-09-11T13:04:31.653Z,99182.04
2017-09-11T13:06:59.946Z,99182.73
2017-09-11T13:09:29.446Z,99180.28
2017-09-11T13:11:58.513Z,99172.88
2017-09-11T13:14:26.822Z,99170.55
2017-09-11T13:16:55.890Z,99178.79
2017-09-11T13:19:24.231Z,99167.95
2017-09-11T13:21:52.540Z,99176.03
2017-09-11T13:24:20.851Z,99181.03
2017-09-11T13:26:49.933Z,99180.73
2017-09-11T13:29:18.239Z,99181.12
2017-09-11T13:31:46.550Z,99193.15
2017-09-11T13:34:14.856Z,99203.02
2017-09-11T13:36:43.187Z,99202.09
2017-09-11T13:39:11.482Z,99191.03
2017-09-11T13:41:39.786Z,99187.01
2017-09-11T13:44:08.097Z,99179.81
2017-09-11T13:46:37.163Z,99181.69
2017-09-11T13:49:05.487Z,99176.63
2017-09-11T13:51:33.803Z,99178.64
2017-09-11T13:54:02.112Z,99175.95
2017-09-11T13:56:31.199Z,99173.52
2017-09-11T13:58:59.522Z,99166.09
2017-09-11T14:01:27.825Z,99159.50
2017-09-11T14:03:56.146Z,99159.78
2017-09-11T14:06:25.215Z,99162.87
2017-09-11T14:08:53.617Z,99162.95
2017-09-11T14:11:22.683Z,99152.44
2017-09-11T14:13:50.987Z,99136.95
2017-09-11T14:16:20.069Z,99133.81
2017-09-11T14:18:48.383Z,99134.25
2017-09-11T14:21:16.725Z,99143.94
2017-09-11T14:23:45.011Z,99137.38
2017-09-11T14:26:14.086Z,99141.19
2017-09-11T14:28:42.401Z,99142.39
2017-09-11T14:31:10.731Z,99132.86
2017-09-11T14:33:39.038Z,99131.48
2017-09-11T14:36:08.118Z,99135.92
2017-09-11T14:38:36.444Z,99126.05
2017-09-11T14:41:04.745Z,99122.59
2017-09-11T14:43:33.054Z,99119.98
2017-09-11T14:46:01.360Z,99124.52
2017-09-11T14:48:29.664Z,99122.57
2017-09-11T14:50:57.966Z,99116.34
2017-09-11T14:53:26.274Z,99116.75
2017-09-11T14:55:55.336Z,99120.95
2017-09-11T14:58:23.675Z,99118.45
2017-09-11T15:00:51.974Z,99120.41
2017-09-11T15:03:20.274Z,99112.08
2017-09-11T15:05:48.589Z,99123.08
2017-09-11T15:08:17.663Z,99122.34
2017-09-11T15:10:45.979Z,99119.41
2017-09-11T15:13:14.278Z,99114.64
2017-09-11T15:15:42.594Z,99110.05
2017-09-11T15:18:10.890Z,99106.55
2017-09-11T15:20:39.974Z,99100.25
2017-09-11T15:23:09.043Z,99100.65
2017-09-11T15:25:37.374Z,99104.95
2017-09-11T15:28:05.726Z,99102.02
2017-09-11T15:30:34.793Z,99098.05
2017-09-11T15:33:03.108Z,99106.05
2017-09-11T15:35:32.174Z,99102.25
2017-09-11T15:38:00.483Z,99100.17
2017-09-11T15:40:29.545Z,99100.09
2017-09-11T15:42:57.854Z,99109.69
2017-09-11T15:45:26.149Z,99112.30
2017-09-11T15:47:54.494Z,99113.59
2017-09-11T15:50:23.558Z,99119.89
2017-09-11T15:52:52.618Z,99119.38
2017-09-11T15:55:20.943Z,99122.31
2017-09-11T15:57:49.237Z,99129.23
2017-09-11T16:00:18.318Z,99128.22
2017-09-11T16:02:46.617Z,99135.50
2017-09-11T16:05:15.702Z,99139.08
2017-09-11T16:07:44.770Z,99130.83
2017-09-11T16:10:13.107Z,99137.06
2017-09-11T16:12:41.428Z,99142.88
2017-09-11T16:15:09.732Z,99145.06
2017-09-11T16:17:38.816Z,99144.42
2017-09-11T16:20:07.117Z,99143.11
2017-09-11T16:22:35.439Z,99145.13
2017-09-11T16:25:03.751Z,99152.98
2017-09-11T16:27:32.058Z,99154.50
2017-09-11T16:30:00.354Z,99149.64
2017-09-11T16:32:28.682Z,99148.37
2017-09-11T16:34:56.985Z,99142.36
2017-09-11T16:37:26.053Z,99143.58
2017-09-11T16:39:54.362Z,99146.63
2017-09-11T16:42:22.657Z,99144.65
2017-09-11T16:44:50.971Z,99146.36
2017-09-11T16:47:19.275Z,99136.78
2017-09-11T16:49:48.354Z,99140.56
2017-09-11T16:52:16.646Z,99146.78
2017-09-11T16:54:45.746Z,99147.53
2017-09-11T16:57:14.820Z,99139.48
2017-09-11T16:59:43.139Z,99137.09
2017-09-11T17:02:11.453Z,99135.42
2017-09-11T17:04:39.754Z,99121.31
2017-09-11T17:07:08.061Z,99121.83
2017-09-11T17:09:36.366Z,99130.41
2017-09-11T17:12:04.681Z,99133.77
2017-09-11T17:14:32.982Z,99132.58
2017-09-11T17:17:02.052Z,99137.70
2017-09-11T17:19:30.351Z,99141.13
2017-09-11T17:21:59.450Z,99142.70
2017-09-11T17:24:28.519Z,99156.95
2017-09-11T17:26:56.821Z,99153.16
2017-09-11T17:29:25.892Z,99157.03
2017-09-11T17:31:54.186Z,99162.28
2017-09-11T17:34:23.262Z,99162.02
2017-09-11T17:36:51.562Z,99167.77
2017-09-11T17:39:20.646Z,99165.85
2017-09-11T17:41:48.950Z,99166.44
2017-09-11T17:44:17.265Z,99177.45
2017-09-11T17:46:45.563Z,99166.28
2017-09-11T17:49:13.894Z,99172.84
2017-09-11T17:51:42.186Z,99177.89
2017-09-11T17:54:10.492Z,99174.77
2017-09-11T17:56:38.804Z,99186.04
2017-09-11T17:59:07.882Z,99181.10
2017-09-11T18:01:36.185Z,99183.44
2017-09-11T18:04:04.481Z,99185.57
2017-09-11T18:06:33.061Z,99188.67
2017-09-11T18:09:01.364Z,99194.27
2017-09-11T18:11:29.669Z,99193.09
2017-09-11T18:13:57.965Z,99193.13
2017-09-11T18:16:27.070Z,99195.95
2017-09-11T18:18:55.405Z,99198.44
2017-09-11T18:21:23.697Z,99201.98
2017-09-11T18:23:52.022Z,99209.98
2017-09-11T18:26:20.318Z,99216.20
2017-09-11T18:28:48.627Z,99218.24
2017-09-11T18:31:16.922Z,99219.95
2017-09-11T18:33:45.994Z,99219.80
2017-09-11T18:36:14.290Z,99229.72
2017-09-11T18:38:43.418Z,99231.75
2017-09-11T18:41:11.714Z,99233.52
2017-09-11T18:43:40.043Z,99238.36
2017-09-11T18:46:09.112Z,99240.53
2017-09-11T18:48:37.406Z,99240.09
2017-09-11T18:51:06.483Z,99238.63
2017-09-11T18:53:34.779Z,99241.56
2017-09-11T18:56:03.855Z,99235.41
2017-09-11T18:58:32.177Z,99241.31
2017-09-11T19:01:00.479Z,99241.59
2017-09-11T19:03:28.777Z,99240.27
2017-09-11T19:05:57.091Z,99248.10
2017-09-11T19:08:26.150Z,99248.85
2017-09-11T19:10:54.458Z,99251.12
2017-09-11T19:13:23.528Z,99250.98
2017-09-11T19:15:51.845Z,99248.50
2017-09-11T19:18:20.166Z,99255.59
2017-09-11T19:20:48.461Z,99261.86
2017-09-11T19:23:16.766Z,99259.70
2017-09-11T19:25:45.825Z,99259.07
2017-09-11T19:28:14.130Z,99258.41
2017-09-11T19:30:43.210Z,99260.50
2017-09-11T19:33:11.529Z,99263.92
2017-09-11T19:35:39.827Z,99263.27
2017-09-11T19:38:08.153Z,99260.38
2017-09-11T19:40:37.218Z,99258.63
2017-09-11T19:43:05.522Z,99258.79
2017-09-11T19:45:34.602Z,99263.33
2017-09-11T19:48:02.898Z,99264.56
2017-09-11T19:50:31.205Z,99264.33
2017-09-11T19:52:59.502Z,99268.17
2017-09-11T19:55:27.821Z,99262.20
2017-09-11T19:57:56.122Z,99268.89
2017-09-11T20:00:24.430Z,99272.59
2017-09-11T20:02:52.734Z,99278.72
2017-09-11T20:05:21.034Z,99284.81
2017-09-11T20:07:49.352Z,99281.67
2017-09-11T20:10:17.654Z,99292.72
2017-09-11T20:12:45.958Z,99287.91
2017-09-11T20:15:14.258Z,99290.78
2017-09-11T20:17:43.315Z,99296.48
2017-09-11T20:20:12.394Z,99296.89
2017-09-11T20:22:40.699Z,99302.00
2017-09-11T20:25:09.005Z,99307.86
2017-09-11T20:27:37.316Z,99310.08
2017-09-11T20:30:05.626Z,99311.87
2017-09-11T20:32:33.922Z,99314.20
2017-09-11T20:35:02.994Z,99313.38
2017-09-11T20:37:31.294Z,99312.45
2017-09-11T20:40:00.361Z,99317.58
2017-09-11T20:42:28.666Z,99316.23
2017-09-11T20:44:57.757Z,99319.94
2017-09-11T20:47:26.818Z,99319.44
2017-09-11T20:49:55.123Z,99318.25
2017-09-11T20:52:23.438Z,99325.93
2017-09-11T20:54:51.736Z,99327.16
2017-09-11T20:57:20.042Z,99325.45
2017-09-11T20:59:48.334Z,99325.97
2017-09-11T21:02:16.640Z,99331.70
2017-09-11T21:04:44.934Z,99331.70
2017-09-11T21:07:13.246Z,99335.95
2017-09-11T21:09:41.537Z,99334.19
2017-09-11T21:12:09.864Z,99337.58
2017-09-11T21:14:38.167Z,99335.01
2017-09-11T21:17:06.463Z,99345.24
2017-09-11T21:19:34.775Z,99344.55
2017-09-11T21:22:03.074Z,99342.67
2017-09-11T21:24:31.396Z,99344.20
2017-09-11T21:26:59.726Z,99344.91
2017-09-11T21:29:28.034Z,99343.99
2017-09-11T21:31:56.326Z,99342.09
2017-09-11T21:34:24.634Z,99336.94
2017-09-11T21:36:53.706Z,99345.00
2017-09-11T21:39:22.025Z,99342.13
2017-09-11T21:41:50.326Z,99337.64
2017-09-11T21:44:18.650Z,99341.98
2017-09-11T21:46:47.715Z,99344.85
2017-09-11T21:49:16.014Z,99347.83
2017-09-11T21:51:44.323Z,99345.63
2017-09-11T21:54:12.634Z,99348.75
2017-09-11T21:56:40.936Z,99346.98
2017-09-11T21:59:09.242Z,99350.00
2017-09-11T22:01:37.554Z,99352.72
2017-09-11T22:04:05.855Z,99353.78
2017-09-11T22:06:34.168Z,99358.68
2017-09-11T22:09:03.240Z,99352.72
2017-09-11T22:11:31.573Z,99349.19
2017-09-11T22:13:59.877Z,99345.55
2017-09-11T22:16:28.170Z,99357.95
2017-09-11T22:18:56.469Z,99358.88
2017-09-11T22:21:25.526Z,99368.39
2017-09-11T22:23:53.838Z,99365.01
2017-09-11T22:26:22.907Z,99370.19
2017-09-11T22:28:51.210Z,99372.08
2017-09-11T22:31:20.266Z,99372.37
2017-09-11T22:33:48.590Z,99372.22
2017-09-11T22:36:17.645Z,99373.84
2017-09-11T22:38:45.937Z,99369.91
2017-09-11T22:41:14.248Z,99371.95
2017-09-11T22:43:42.546Z,99368.83
2017-09-11T22:46:10.848Z,99370.45
2017-09-11T22:48:39.157Z,99372.88
2017-09-11T22:51:08.225Z,99371.27
2017-09-11T22:53:36.522Z,99364.98
2017-09-11T22:56:05.661Z,99364.02
2017-09-11T22:58:33.955Z,99369.31
2017-09-11T23:01:02.270Z,99373.69
2017-09-11T23:03:31.342Z,99370.82
2017-09-11T23:05:59.639Z,99373.14
2017-09-11T23:08:27.951Z,99380.09
2017-09-11T23:10:56.248Z,99379.02
2017-09-11T23:13:24.550Z,99390.17
2017-09-11T23:15:52.846Z,99385.02
2017-09-11T23:18:21.162Z,99389.91
2017-09-11T23:20:49.449Z,99381.48
2017-09-11T23:23:17.752Z,99380.82
2017-09-11T23:25:46.053Z,99387.73
2017-09-11T23:28:14.356Z,99384.47
2017-09-11T23:30:43.411Z,99387.48
2017-09-11T23:33:11.721Z,99380.27
2017-09-11T23:35:40.802Z,99387.33
2017-09-11T23:38:09.097Z,99394.13
2017-09-11T23:40:38.165Z,99386.14
2017-09-11T23:43:06.462Z,99391.44
2017-09-11T23:45:35.527Z,99389.53
2017-09-11T23:48:03.867Z,99393.20
2017-09-11T23:50:32.165Z,99391.97
2017-09-11T23:53:00.452Z,99388.43
2017-09-11T23:55:28.754Z,99393.06
2017-09-11T23:57:57.054Z,99396.19
